sensor_id;sensor_type;location;lat;lon;timestamp;P1;durP1;ratioP1;P2;durP2;ratioP2
13568;SDS011;6856;51.460;7.158;2022-09-09T00:02:02;1.03;;;0.43;;
13568;SDS011;6856;51.460;7.158;2022-09-09T00:04:54;1.57;;;0.57;;
13568;SDS011;6856;51.460;7.158;2022-09-09T00:07:38;0.40;;;0.40;;
13568;SDS011;6856;51.460;7.158;2022-09-09T00:10:21;1.20;;;0.57;;
13568;SDS011;6856;51.460;7.158;2022-09-09T00:13:02;0.43;;;0.43;;
13568;SDS011;6856;51.460;7.158;2022-09-09T00:15:52;0.87;;;0.50;;
13568;SDS011;6856;51.460;7.158;2022-09-09T00:18:35;2.43;;;0.67;;
13568;SDS011;6856;51.460;7.158;2022-09-09T00:21:30;1.17;;;0.63;;
13568;SDS011;6856;51.460;7.158;2022-09-09T00:24:09;0.57;;;0.40;;
13568;SDS011;6856;51.460;7.158;2022-09-09T00:26:57;1.37;;;0.60;;
13568;SDS011;6856;51.460;7.158;2022-09-09T00:29:40;1.23;;;0.70;;
13568;SDS011;6856;51.460;7.158;2022-09-09T00:32:20;0.93;;;0.50;;
13568;SDS011;6856;51.460;7.158;2022-09-09T00:34:55;1.70;;;0.70;;
13568;SDS011;6856;51.460;7.158;2022-09-09T00:37:36;1.60;;;0.57;;
13568;SDS011;6856;51.460;7.158;2022-09-09T00:40:22;1.30;;;0.43;;
13568;SDS011;6856;51.460;7.158;2022-09-09T00:49:27;1.20;;;0.60;;
13568;SDS011;6856;51.460;7.158;2022-09-09T00:52:21;2.83;;;0.50;;
13568;SDS011;6856;51.460;7.158;2022-09-09T00:55:10;0.90;;;0.50;;
13568;SDS011;6856;51.460;7.158;2022-09-09T00:57:53;0.67;;;0.47;;
13568;SDS011;6856;51.460;7.158;2022-09-09T01:00:27;1.43;;;0.70;;
13568;SDS011;6856;51.460;7.158;2022-09-09T01:03:19;0.50;;;0.50;;
13568;SDS011;6856;51.460;7.158;2022-09-09T01:06:00;1.83;;;0.60;;
13568;SDS011;6856;51.460;7.158;2022-09-09T01:08:54;1.20;;;0.73;;
13568;SDS011;6856;51.460;7.158;2022-09-09T01:11:48;1.13;;;0.50;;
13568;SDS011;6856;51.460;7.158;2022-09-09T01:14:32;0.50;;;0.50;;
13568;SDS011;6856;51.460;7.158;2022-09-09T01:17:16;2.10;;;0.73;;
13568;SDS011;6856;51.460;7.158;2022-09-09T01:19:57;0.97;;;0.53;;
13568;SDS011;6856;51.460;7.158;2022-09-09T01:22:40;0.80;;;0.40;;
13568;SDS011;6856;51.460;7.158;2022-09-09T01:25:57;0.63;;;0.53;;
13568;SDS011;6856;51.460;7.158;2022-09-09T01:28:50;1.70;;;0.80;;
13568;SDS011;6856;51.460;7.158;2022-09-09T01:31:26;0.87;;;0.50;;
13568;SDS011;6856;51.460;7.158;2022-09-09T01:34:08;1.40;;;0.83;;
13568;SDS011;6856;51.460;7.158;2022-09-09T01:36:45;2.97;;;0.80;;
13568;SDS011;6856;51.460;7.158;2022-09-09T01:39:25;0.93;;;0.63;;
13568;SDS011;6856;51.460;7.158;2022-09-09T01:42:01;1.47;;;0.60;;
13568;SDS011;6856;51.460;7.158;2022-09-09T01:44:37;0.90;;;0.70;;
13568;SDS011;6856;51.460;7.158;2022-09-09T01:47:11;0.90;;;0.60;;
13568;SDS011;6856;51.460;7.158;2022-09-09T01:49:45;1.43;;;0.70;;
13568;SDS011;6856;51.460;7.158;2022-09-09T01:52:18;1.03;;;0.70;;
13568;SDS011;6856;51.460;7.158;2022-09-09T01:54:51;0.60;;;0.60;;
13568;SDS011;6856;51.460;7.158;2022-09-09T01:57:27;1.23;;;0.80;;
13568;SDS011;6856;51.460;7.158;2022-09-09T02:00:10;2.53;;;1.03;;
13568;SDS011;6856;51.460;7.158;2022-09-09T02:02:48;1.53;;;0.80;;
13568;SDS011;6856;51.460;7.158;2022-09-09T02:05:34;1.67;;;0.70;;
13568;SDS011;6856;51.460;7.158;2022-09-09T02:08:14;1.70;;;0.80;;
13568;SDS011;6856;51.460;7.158;2022-09-09T02:10:56;1.57;;;1.00;;
13568;SDS011;6856;51.460;7.158;2022-09-09T02:13:39;2.53;;;1.00;;
13568;SDS011;6856;51.460;7.158;2022-09-09T02:16:18;2.00;;;1.00;;
13568;SDS011;6856;51.460;7.158;2022-09-09T02:19:00;1.20;;;1.00;;
13568;SDS011;6856;51.460;7.158;2022-09-09T02:21:39;0.90;;;0.90;;
13568;SDS011;6856;51.460;7.158;2022-09-09T02:24:17;1.70;;;1.10;;
13568;SDS011;6856;51.460;7.158;2022-09-09T02:26:51;2.40;;;1.10;;
13568;SDS011;6856;51.460;7.158;2022-09-09T02:29:30;2.10;;;1.27;;
13568;SDS011;6856;51.460;7.158;2022-09-09T02:32:09;1.60;;;1.00;;
13568;SDS011;6856;51.460;7.158;2022-09-09T02:34:48;3.63;;;1.20;;
13568;SDS011;6856;51.460;7.158;2022-09-09T02:37:28;0.93;;;0.77;;
13568;SDS011;6856;51.460;7.158;2022-09-09T02:40:09;2.27;;;0.97;;
13568;SDS011;6856;51.460;7.158;2022-09-09T02:42:47;2.67;;;1.03;;
13568;SDS011;6856;51.460;7.158;2022-09-09T02:45:24;2.30;;;1.10;;
13568;SDS011;6856;51.460;7.158;2022-09-09T02:48:07;1.80;;;0.90;;
13568;SDS011;6856;51.460;7.158;2022-09-09T02:50:51;2.57;;;1.20;;
13568;SDS011;6856;51.460;7.158;2022-09-09T02:53:38;3.13;;;1.03;;
13568;SDS011;6856;51.460;7.158;2022-09-09T02:56:25;2.47;;;1.13;;
13568;SDS011;6856;51.460;7.158;2022-09-09T02:59:05;2.20;;;1.00;;
13568;SDS011;6856;51.460;7.158;2022-09-09T03:01:41;2.20;;;1.00;;
13568;SDS011;6856;51.460;7.158;2022-09-09T03:04:15;0.80;;;0.80;;
13568;SDS011;6856;51.460;7.158;2022-09-09T03:06:48;2.13;;;1.00;;
13568;SDS011;6856;51.460;7.158;2022-09-09T03:09:26;1.90;;;1.13;;
13568;SDS011;6856;51.460;7.158;2022-09-09T03:11:59;1.40;;;0.90;;
13568;SDS011;6856;51.460;7.158;2022-09-09T03:14:33;1.73;;;0.80;;
13568;SDS011;6856;51.460;7.158;2022-09-09T03:17:08;2.20;;;1.00;;
13568;SDS011;6856;51.460;7.158;2022-09-09T03:19:41;1.27;;;0.97;;
13568;SDS011;6856;51.460;7.158;2022-09-09T03:22:15;1.90;;;0.87;;
13568;SDS011;6856;51.460;7.158;2022-09-09T03:24:48;1.10;;;1.00;;
13568;SDS011;6856;51.460;7.158;2022-09-09T03:27:22;1.67;;;0.80;;
13568;SDS011;6856;51.460;7.158;2022-09-09T03:29:55;1.90;;;0.80;;
13568;SDS011;6856;51.460;7.158;2022-09-09T03:32:30;1.00;;;0.80;;
13568;SDS011;6856;51.460;7.158;2022-09-09T03:35:04;1.13;;;0.90;;
13568;SDS011;6856;51.460;7.158;2022-09-09T03:37:38;1.20;;;0.80;;
13568;SDS011;6856;51.460;7.158;2022-09-09T03:40:13;1.73;;;0.70;;
13568;SDS011;6856;51.460;7.158;2022-09-09T03:42:48;1.67;;;0.90;;
13568;SDS011;6856;51.460;7.158;2022-09-09T03:45:21;1.80;;;0.80;;
13568;SDS011;6856;51.460;7.158;2022-09-09T03:47:56;2.33;;;1.07;;
13568;SDS011;6856;51.460;7.158;2022-09-09T03:50:29;4.77;;;1.10;;
13568;SDS011;6856;51.460;7.158;2022-09-09T03:53:03;1.90;;;0.90;;
13568;SDS011;6856;51.460;7.158;2022-09-09T03:55:37;2.40;;;1.10;;
13568;SDS011;6856;51.460;7.158;2022-09-09T03:58:13;1.80;;;1.20;;
13568;SDS011;6856;51.460;7.158;2022-09-09T04:00:52;1.60;;;0.80;;
13568;SDS011;6856;51.460;7.158;2022-09-09T04:03:31;1.43;;;0.90;;
13568;SDS011;6856;51.460;7.158;2022-09-09T04:06:06;2.53;;;1.17;;
13568;SDS011;6856;51.460;7.158;2022-09-09T04:08:43;1.10;;;0.90;;
13568;SDS011;6856;51.460;7.158;2022-09-09T04:11:16;1.93;;;1.33;;
13568;SDS011;6856;51.460;7.158;2022-09-09T04:13:49;1.40;;;0.90;;
13568;SDS011;6856;51.460;7.158;2022-09-09T04:16:25;1.53;;;0.80;;
13568;SDS011;6856;51.460;7.158;2022-09-09T04:19:00;1.63;;;0.80;;
13568;SDS011;6856;51.460;7.158;2022-09-09T04:21:35;2.50;;;1.17;;
13568;SDS011;6856;51.460;7.158;2022-09-09T04:24:08;2.30;;;1.03;;
13568;SDS011;6856;51.460;7.158;2022-09-09T04:26:44;3.50;;;1.27;;
13568;SDS011;6856;51.460;7.158;2022-09-09T04:29:18;1.80;;;0.80;;
13568;SDS011;6856;51.460;7.158;2022-09-09T04:31:51;1.30;;;0.90;;
13568;SDS011;6856;51.460;7.158;2022-09-09T04:34:26;1.50;;;0.80;;
13568;SDS011;6856;51.460;7.158;2022-09-09T04:37:01;1.80;;;1.10;;
13568;SDS011;6856;51.460;7.158;2022-09-09T04:39:34;1.43;;;1.00;;
13568;SDS011;6856;51.460;7.158;2022-09-09T04:42:08;1.80;;;0.90;;
13568;SDS011;6856;51.460;7.158;2022-09-09T04:44:41;1.67;;;0.90;;
13568;SDS011;6856;51.460;7.158;2022-09-09T04:47:14;3.47;;;1.27;;
13568;SDS011;6856;51.460;7.158;2022-09-09T04:49:50;1.77;;;0.87;;
13568;SDS011;6856;51.460;7.158;2022-09-09T04:52:25;1.13;;;0.80;;
13568;SDS011;6856;51.460;7.158;2022-09-09T04:54:59;1.13;;;0.83;;
13568;SDS011;6856;51.460;7.158;2022-09-09T04:57:34;3.20;;;1.20;;
13568;SDS011;6856;51.460;7.158;2022-09-09T05:00:07;3.33;;;0.90;;
13568;SDS011;6856;51.460;7.158;2022-09-09T05:02:45;3.33;;;1.00;;
13568;SDS011;6856;51.460;7.158;2022-09-09T05:05:21;1.77;;;0.90;;
13568;SDS011;6856;51.460;7.158;2022-09-09T05:07:59;1.67;;;1.00;;
13568;SDS011;6856;51.460;7.158;2022-09-09T05:10:36;1.80;;;0.90;;
13568;SDS011;6856;51.460;7.158;2022-09-09T05:13:17;2.87;;;1.20;;
13568;SDS011;6856;51.460;7.158;2022-09-09T05:15:51;1.40;;;0.70;;
13568;SDS011;6856;51.460;7.158;2022-09-09T05:18:25;2.27;;;0.97;;
13568;SDS011;6856;51.460;7.158;2022-09-09T05:21:00;1.70;;;0.90;;
13568;SDS011;6856;51.460;7.158;2022-09-09T05:23:34;2.60;;;0.90;;
13568;SDS011;6856;51.460;7.158;2022-09-09T05:26:09;3.30;;;1.23;;
13568;SDS011;6856;51.460;7.158;2022-09-09T05:28:48;2.10;;;1.20;;
13568;SDS011;6856;51.460;7.158;2022-09-09T05:31:23;2.20;;;1.13;;
13568;SDS011;6856;51.460;7.158;2022-09-09T05:33:59;3.13;;;1.00;;
13568;SDS011;6856;51.460;7.158;2022-09-09T05:36:34;2.63;;;1.20;;
13568;SDS011;6856;51.460;7.158;2022-09-09T05:39:09;1.97;;;1.17;;
13568;SDS011;6856;51.460;7.158;2022-09-09T05:41:43;1.77;;;1.10;;
13568;SDS011;6856;51.460;7.158;2022-09-09T05:44:17;3.90;;;1.40;;
13568;SDS011;6856;51.460;7.158;2022-09-09T05:46:51;3.90;;;1.27;;
13568;SDS011;6856;51.460;7.158;2022-09-09T05:49:25;2.97;;;1.27;;
13568;SDS011;6856;51.460;7.158;2022-09-09T05:52:03;2.27;;;1.20;;
13568;SDS011;6856;51.460;7.158;2022-09-09T05:54:37;3.13;;;1.23;;
13568;SDS011;6856;51.460;7.158;2022-09-09T05:57:11;2.60;;;1.00;;
13568;SDS011;6856;51.460;7.158;2022-09-09T05:59:44;2.17;;;1.00;;
13568;SDS011;6856;51.460;7.158;2022-09-09T06:02:18;1.83;;;1.10;;
13568;SDS011;6856;51.460;7.158;2022-09-09T06:04:51;1.83;;;1.00;;
13568;SDS011;6856;51.460;7.158;2022-09-09T06:07:32;2.73;;;1.20;;
13568;SDS011;6856;51.460;7.158;2022-09-09T06:10:06;1.63;;;1.00;;
13568;SDS011;6856;51.460;7.158;2022-09-09T06:12:40;1.93;;;1.33;;
13568;SDS011;6856;51.460;7.158;2022-09-09T06:15:14;3.70;;;1.17;;
13568;SDS011;6856;51.460;7.158;2022-09-09T06:17:53;2.30;;;1.10;;
13568;SDS011;6856;51.460;7.158;2022-09-09T06:20:27;1.30;;;0.80;;
13568;SDS011;6856;51.460;7.158;2022-09-09T06:23:04;2.90;;;1.07;;
13568;SDS011;6856;51.460;7.158;2022-09-09T06:25:37;1.90;;;1.23;;
13568;SDS011;6856;51.460;7.158;2022-09-09T06:28:11;2.90;;;1.10;;
13568;SDS011;6856;51.460;7.158;2022-09-09T06:30:45;4.67;;;1.37;;
13568;SDS011;6856;51.460;7.158;2022-09-09T06:33:19;1.40;;;1.00;;
13568;SDS011;6856;51.460;7.158;2022-09-09T06:35:52;3.83;;;1.40;;
13568;SDS011;6856;51.460;7.158;2022-09-09T06:38:29;3.13;;;1.10;;
13568;SDS011;6856;51.460;7.158;2022-09-09T06:41:09;4.17;;;1.27;;
13568;SDS011;6856;51.460;7.158;2022-09-09T06:43:52;2.53;;;1.00;;
13568;SDS011;6856;51.460;7.158;2022-09-09T06:46:27;2.03;;;1.07;;
13568;SDS011;6856;51.460;7.158;2022-09-09T06:49:07;3.23;;;1.37;;
13568;SDS011;6856;51.460;7.158;2022-09-09T06:51:41;3.07;;;1.17;;
13568;SDS011;6856;51.460;7.158;2022-09-09T06:54:16;1.83;;;0.90;;
13568;SDS011;6856;51.460;7.158;2022-09-09T06:56:51;3.63;;;1.00;;
13568;SDS011;6856;51.460;7.158;2022-09-09T06:59:24;2.53;;;1.10;;
13568;SDS011;6856;51.460;7.158;2022-09-09T07:01:58;3.17;;;1.07;;
13568;SDS011;6856;51.460;7.158;2022-09-09T07:04:32;2.67;;;1.10;;
13568;SDS011;6856;51.460;7.158;2022-09-09T07:07:06;1.67;;;1.03;;
13568;SDS011;6856;51.460;7.158;2022-09-09T07:09:42;1.93;;;0.97;;
13568;SDS011;6856;51.460;7.158;2022-09-09T07:12:16;4.27;;;1.30;;
13568;SDS011;6856;51.460;7.158;2022-09-09T07:14:50;2.37;;;1.07;;
13568;SDS011;6856;51.460;7.158;2022-09-09T07:17:23;4.10;;;1.37;;
13568;SDS011;6856;51.460;7.158;2022-09-09T07:19:57;3.97;;;1.10;;
13568;SDS011;6856;51.460;7.158;2022-09-09T07:22:30;2.33;;;1.03;;
13568;SDS011;6856;51.460;7.158;2022-09-09T07:25:09;2.83;;;1.03;;
13568;SDS011;6856;51.460;7.158;2022-09-09T07:27:42;4.23;;;1.00;;
13568;SDS011;6856;51.460;7.158;2022-09-09T07:30:16;3.30;;;1.20;;
13568;SDS011;6856;51.460;7.158;2022-09-09T07:32:58;5.20;;;1.10;;
13568;SDS011;6856;51.460;7.158;2022-09-09T07:35:31;2.23;;;1.10;;
13568;SDS011;6856;51.460;7.158;2022-09-09T07:38:05;2.43;;;0.90;;
13568;SDS011;6856;51.460;7.158;2022-09-09T07:40:40;3.30;;;1.23;;
13568;SDS011;6856;51.460;7.158;2022-09-09T07:43:14;1.57;;;0.97;;
13568;SDS011;6856;51.460;7.158;2022-09-09T07:45:56;2.00;;;0.80;;
13568;SDS011;6856;51.460;7.158;2022-09-09T07:48:49;3.07;;;0.97;;
13568;SDS011;6856;51.460;7.158;2022-09-09T07:51:58;2.90;;;1.00;;
13568;SDS011;6856;51.460;7.158;2022-09-09T07:57:42;1.90;;;0.90;;
13568;SDS011;6856;51.460;7.158;2022-09-09T08:00:15;2.37;;;1.07;;
13568;SDS011;6856;51.460;7.158;2022-09-09T08:02:50;3.03;;;1.00;;
13568;SDS011;6856;51.460;7.158;2022-09-09T08:05:25;2.07;;;1.00;;
13568;SDS011;6856;51.460;7.158;2022-09-09T08:08:00;1.43;;;0.73;;
13568;SDS011;6856;51.460;7.158;2022-09-09T08:11:06;2.27;;;0.87;;
13568;SDS011;6856;51.460;7.158;2022-09-09T08:13:44;3.00;;;1.10;;
13568;SDS011;6856;51.460;7.158;2022-09-09T08:16:24;2.87;;;0.90;;
13568;SDS011;6856;51.460;7.158;2022-09-09T08:19:01;3.13;;;1.10;;
13568;SDS011;6856;51.460;7.158;2022-09-09T08:21:38;2.90;;;1.00;;
13568;SDS011;6856;51.460;7.158;2022-09-09T08:24:13;3.00;;;1.10;;
13568;SDS011;6856;51.460;7.158;2022-09-09T08:26:47;3.13;;;0.97;;
13568;SDS011;6856;51.460;7.158;2022-09-09T08:29:29;3.77;;;1.37;;
13568;SDS011;6856;51.460;7.158;2022-09-09T08:32:02;3.37;;;0.90;;
13568;SDS011;6856;51.460;7.158;2022-09-09T08:34:38;4.17;;;1.30;;
13568;SDS011;6856;51.460;7.158;2022-09-09T08:37:17;2.57;;;0.90;;
13568;SDS011;6856;51.460;7.158;2022-09-09T08:39:51;2.00;;;1.00;;
13568;SDS011;6856;51.460;7.158;2022-09-09T08:42:31;1.80;;;1.00;;
13568;SDS011;6856;51.460;7.158;2022-09-09T08:45:23;2.90;;;0.90;;
13568;SDS011;6856;51.460;7.158;2022-09-09T08:48:08;3.30;;;1.03;;
13568;SDS011;6856;51.460;7.158;2022-09-09T08:51:00;3.00;;;1.10;;
13568;SDS011;6856;51.460;7.158;2022-09-09T08:53:41;3.07;;;1.10;;
13568;SDS011;6856;51.460;7.158;2022-09-09T08:56:20;3.70;;;1.10;;
13568;SDS011;6856;51.460;7.158;2022-09-09T08:58:57;1.97;;;1.00;;
13568;SDS011;6856;51.460;7.158;2022-09-09T09:01:43;2.37;;;1.17;;
13568;SDS011;6856;51.460;7.158;2022-09-09T09:04:30;3.00;;;1.10;;
13568;SDS011;6856;51.460;7.158;2022-09-09T09:07:22;2.50;;;0.97;;
13568;SDS011;6856;51.460;7.158;2022-09-09T09:10:15;2.93;;;1.00;;
13568;SDS011;6856;51.460;7.158;2022-09-09T09:13:14;1.47;;;0.83;;
13568;SDS011;6856;51.460;7.158;2022-09-09T09:15:54;2.73;;;1.27;;
13568;SDS011;6856;51.460;7.158;2022-09-09T09:18:34;3.60;;;1.00;;
13568;SDS011;6856;51.460;7.158;2022-09-09T09:21:10;3.40;;;1.13;;
13568;SDS011;6856;51.460;7.158;2022-09-09T09:23:53;5.50;;;1.13;;
13568;SDS011;6856;51.460;7.158;2022-09-09T09:26:32;3.57;;;1.30;;
13568;SDS011;6856;51.460;7.158;2022-09-09T09:29:09;2.17;;;1.10;;
13568;SDS011;6856;51.460;7.158;2022-09-09T09:31:47;3.13;;;1.30;;
13568;SDS011;6856;51.460;7.158;2022-09-09T09:34:27;3.93;;;1.30;;
13568;SDS011;6856;51.460;7.158;2022-09-09T09:37:01;3.43;;;1.20;;
13568;SDS011;6856;51.460;7.158;2022-09-09T09:39:49;2.77;;;0.93;;
13568;SDS011;6856;51.460;7.158;2022-09-09T09:42:38;2.72;;;0.90;;
13568;SDS011;6856;51.460;7.158;2022-09-09T09:45:26;2.47;;;1.10;;
13568;SDS011;6856;51.460;7.158;2022-09-09T09:48:05;3.10;;;1.00;;
13568;SDS011;6856;51.460;7.158;2022-09-09T09:50:49;2.25;;;0.85;;
13568;SDS011;6856;51.460;7.158;2022-09-09T09:53:29;3.17;;;1.03;;
13568;SDS011;6856;51.460;7.158;2022-09-09T09:56:08;2.40;;;1.00;;
13568;SDS011;6856;51.460;7.158;2022-09-09T09:58:54;2.97;;;1.03;;
13568;SDS011;6856;51.460;7.158;2022-09-09T10:01:29;1.80;;;1.00;;
13568;SDS011;6856;51.460;7.158;2022-09-09T10:04:13;1.73;;;0.80;;
13568;SDS011;6856;51.460;7.158;2022-09-09T10:06:51;2.47;;;0.93;;
13568;SDS011;6856;51.460;7.158;2022-09-09T10:09:25;2.27;;;0.90;;
13568;SDS011;6856;51.460;7.158;2022-09-09T10:12:05;1.83;;;1.00;;
13568;SDS011;6856;51.460;7.158;2022-09-09T10:14:57;3.30;;;1.03;;
13568;SDS011;6856;51.460;7.158;2022-09-09T10:17:47;1.83;;;0.80;;
13568;SDS011;6856;51.460;7.158;2022-09-09T10:20:35;2.27;;;1.00;;
13568;SDS011;6856;51.460;7.158;2022-09-09T10:26:45;4.17;;;0.90;;
13568;SDS011;6856;51.460;7.158;2022-09-09T10:29:36;4.17;;;1.20;;
13568;SDS011;6856;51.460;7.158;2022-09-09T10:32:30;1.50;;;0.70;;
13568;SDS011;6856;51.460;7.158;2022-09-09T10:35:14;2.27;;;0.70;;
13568;SDS011;6856;51.460;7.158;2022-09-09T10:38:10;2.07;;;0.73;;
13568;SDS011;6856;51.460;7.158;2022-09-09T10:41:09;1.73;;;0.87;;
13568;SDS011;6856;51.460;7.158;2022-09-09T10:43:56;2.30;;;1.00;;
13568;SDS011;6856;51.460;7.158;2022-09-09T10:46:52;2.50;;;0.80;;
13568;SDS011;6856;51.460;7.158;2022-09-09T10:49:52;1.40;;;0.80;;
13568;SDS011;6856;51.460;7.158;2022-09-09T10:53:08;2.93;;;0.80;;
13568;SDS011;6856;51.460;7.158;2022-09-09T10:55:51;2.73;;;0.90;;
13568;SDS011;6856;51.460;7.158;2022-09-09T10:58:35;2.13;;;0.73;;
13568;SDS011;6856;51.460;7.158;2022-09-09T11:01:16;1.23;;;0.70;;
13568;SDS011;6856;51.460;7.158;2022-09-09T11:03:57;1.07;;;0.70;;
13568;SDS011;6856;51.460;7.158;2022-09-09T11:06:38;1.87;;;0.90;;
13568;SDS011;6856;51.460;7.158;2022-09-09T11:09:19;1.83;;;0.77;;
13568;SDS011;6856;51.460;7.158;2022-09-09T11:11:57;3.53;;;0.80;;
13568;SDS011;6856;51.460;7.158;2022-09-09T11:14:36;0.63;;;0.60;;
13568;SDS011;6856;51.460;7.158;2022-09-09T11:17:15;1.87;;;0.70;;
13568;SDS011;6856;51.460;7.158;2022-09-09T11:19:53;1.13;;;0.80;;
13568;SDS011;6856;51.460;7.158;2022-09-09T11:22:27;2.33;;;0.83;;
13568;SDS011;6856;51.460;7.158;2022-09-09T11:25:07;1.67;;;0.60;;
13568;SDS011;6856;51.460;7.158;2022-09-09T11:27:55;1.27;;;0.63;;
13568;SDS011;6856;51.460;7.158;2022-09-09T11:30:52;2.10;;;0.70;;
13568;SDS011;6856;51.460;7.158;2022-09-09T11:33:58;1.90;;;0.80;;
13568;SDS011;6856;51.460;7.158;2022-09-09T11:37:00;1.87;;;0.70;;
13568;SDS011;6856;51.460;7.158;2022-09-09T11:40:07;0.67;;;0.50;;
13568;SDS011;6856;51.460;7.158;2022-09-09T11:43:00;1.73;;;0.63;;
13568;SDS011;6856;51.460;7.158;2022-09-09T11:45:37;0.93;;;0.60;;
13568;SDS011;6856;51.460;7.158;2022-09-09T11:48:23;1.57;;;0.70;;
13568;SDS011;6856;51.460;7.158;2022-09-09T11:51:06;1.87;;;0.70;;
13568;SDS011;6856;51.460;7.158;2022-09-09T11:53:48;0.93;;;0.50;;
13568;SDS011;6856;51.460;7.158;2022-09-09T11:56:25;1.13;;;0.60;;
13568;SDS011;6856;51.460;7.158;2022-09-09T11:59:05;1.37;;;0.80;;
13568;SDS011;6856;51.460;7.158;2022-09-09T12:01:54;1.00;;;0.73;;
13568;SDS011;6856;51.460;7.158;2022-09-09T12:04:33;1.40;;;0.70;;
13568;SDS011;6856;51.460;7.158;2022-09-09T12:07:23;2.10;;;0.70;;
13568;SDS011;6856;51.460;7.158;2022-09-09T12:10:18;1.43;;;0.80;;
13568;SDS011;6856;51.460;7.158;2022-09-09T12:13:07;2.30;;;0.70;;
13568;SDS011;6856;51.460;7.158;2022-09-09T12:15:56;1.43;;;0.73;;
13568;SDS011;6856;51.460;7.158;2022-09-09T12:18:38;1.13;;;0.73;;
13568;SDS011;6856;51.460;7.158;2022-09-09T12:21:21;1.87;;;0.73;;
13568;SDS011;6856;51.460;7.158;2022-09-09T12:24:08;1.30;;;0.60;;
13568;SDS011;6856;51.460;7.158;2022-09-09T12:26:47;1.00;;;0.53;;
13568;SDS011;6856;51.460;7.158;2022-09-09T12:29:31;2.37;;;1.00;;
13568;SDS011;6856;51.460;7.158;2022-09-09T12:32:20;1.20;;;0.60;;
13568;SDS011;6856;51.460;7.158;2022-09-09T12:34:58;1.37;;;0.60;;
13568;SDS011;6856;51.460;7.158;2022-09-09T12:37:46;1.00;;;0.50;;
13568;SDS011;6856;51.460;7.158;2022-09-09T12:40:29;2.20;;;0.60;;
13568;SDS011;6856;51.460;7.158;2022-09-09T12:43:16;1.37;;;0.70;;
13568;SDS011;6856;51.460;7.158;2022-09-09T12:46:07;2.50;;;0.73;;
13568;SDS011;6856;51.460;7.158;2022-09-09T12:52:12;2.10;;;0.83;;
13568;SDS011;6856;51.460;7.158;2022-09-09T12:54:54;0.47;;;0.47;;
13568;SDS011;6856;51.460;7.158;2022-09-09T12:57:30;1.70;;;0.63;;
13568;SDS011;6856;51.460;7.158;2022-09-09T13:00:12;1.77;;;0.70;;
13568;SDS011;6856;51.460;7.158;2022-09-09T13:02:50;0.80;;;0.67;;
13568;SDS011;6856;51.460;7.158;2022-09-09T13:05:27;1.30;;;0.70;;
13568;SDS011;6856;51.460;7.158;2022-09-09T13:08:08;1.10;;;0.80;;
13568;SDS011;6856;51.460;7.158;2022-09-09T13:10:48;0.93;;;0.70;;
13568;SDS011;6856;51.460;7.158;2022-09-09T13:13:35;1.25;;;0.50;;
13568;SDS011;6856;51.460;7.158;2022-09-09T13:16:20;1.05;;;0.60;;
13568;SDS011;6856;51.460;7.158;2022-09-09T13:19:06;0.77;;;0.50;;
13568;SDS011;6856;51.460;7.158;2022-09-09T13:21:47;1.33;;;0.90;;
13568;SDS011;6856;51.460;7.158;2022-09-09T13:24:23;1.33;;;0.60;;
13568;SDS011;6856;51.460;7.158;2022-09-09T13:27:25;2.03;;;0.83;;
13568;SDS011;6856;51.460;7.158;2022-09-09T13:35:54;3.63;;;0.90;;
13568;SDS011;6856;51.460;7.158;2022-09-09T13:38:32;2.13;;;0.70;;
13568;SDS011;6856;51.460;7.158;2022-09-09T13:41:10;0.97;;;0.70;;
13568;SDS011;6856;51.460;7.158;2022-09-09T13:43:54;1.00;;;0.63;;
13568;SDS011;6856;51.460;7.158;2022-09-09T13:46:31;3.60;;;1.10;;
13568;SDS011;6856;51.460;7.158;2022-09-09T13:49:18;2.17;;;0.80;;
13568;SDS011;6856;51.460;7.158;2022-09-09T13:52:04;3.00;;;1.00;;
13568;SDS011;6856;51.460;7.158;2022-09-09T13:54:47;2.60;;;1.00;;
13568;SDS011;6856;51.460;7.158;2022-09-09T13:57:23;1.53;;;0.73;;
13568;SDS011;6856;51.460;7.158;2022-09-09T14:00:00;1.60;;;0.80;;
13568;SDS011;6856;51.460;7.158;2022-09-09T14:02:36;2.00;;;0.87;;
13568;SDS011;6856;51.460;7.158;2022-09-09T14:05:11;2.00;;;0.80;;
13568;SDS011;6856;51.460;7.158;2022-09-09T14:07:44;2.60;;;0.90;;
13568;SDS011;6856;51.460;7.158;2022-09-09T14:10:23;2.73;;;0.90;;
13568;SDS011;6856;51.460;7.158;2022-09-09T14:12:56;1.33;;;0.63;;
13568;SDS011;6856;51.460;7.158;2022-09-09T14:15:31;1.90;;;0.80;;
13568;SDS011;6856;51.460;7.158;2022-09-09T14:18:04;1.57;;;0.70;;
13568;SDS011;6856;51.460;7.158;2022-09-09T14:20:38;2.20;;;0.87;;
13568;SDS011;6856;51.460;7.158;2022-09-09T14:23:13;2.77;;;0.90;;
13568;SDS011;6856;51.460;7.158;2022-09-09T14:25:46;2.97;;;1.03;;
13568;SDS011;6856;51.460;7.158;2022-09-09T14:28:20;1.20;;;0.73;;
13568;SDS011;6856;51.460;7.158;2022-09-09T14:31:15;2.80;;;1.00;;
13568;SDS011;6856;51.460;7.158;2022-09-09T14:33:49;1.77;;;0.83;;
13568;SDS011;6856;51.460;7.158;2022-09-09T14:36:23;1.73;;;0.90;;
13568;SDS011;6856;51.460;7.158;2022-09-09T14:38:57;2.20;;;0.73;;
13568;SDS011;6856;51.460;7.158;2022-09-09T14:41:30;1.23;;;0.67;;
13568;SDS011;6856;51.460;7.158;2022-09-09T14:44:03;1.57;;;0.80;;
13568;SDS011;6856;51.460;7.158;2022-09-09T14:46:38;0.70;;;0.70;;
13568;SDS011;6856;51.460;7.158;2022-09-09T14:49:13;1.20;;;0.70;;
13568;SDS011;6856;51.460;7.158;2022-09-09T14:51:47;1.60;;;0.80;;
13568;SDS011;6856;51.460;7.158;2022-09-09T14:54:20;0.70;;;0.57;;
13568;SDS011;6856;51.460;7.158;2022-09-09T14:56:54;0.50;;;0.50;;
13568;SDS011;6856;51.460;7.158;2022-09-09T14:59:28;1.03;;;0.60;;
13568;SDS011;6856;51.460;7.158;2022-09-09T15:02:03;1.03;;;0.60;;
13568;SDS011;6856;51.460;7.158;2022-09-09T15:04:38;3.27;;;1.00;;
13568;SDS011;6856;51.460;7.158;2022-09-09T15:07:11;1.43;;;0.70;;
13568;SDS011;6856;51.460;7.158;2022-09-09T15:09:45;1.40;;;0.70;;
13568;SDS011;6856;51.460;7.158;2022-09-09T15:12:19;2.23;;;0.93;;
13568;SDS011;6856;51.460;7.158;2022-09-09T15:14:53;1.87;;;0.90;;
13568;SDS011;6856;51.460;7.158;2022-09-09T15:17:28;2.50;;;0.90;;
13568;SDS011;6856;51.460;7.158;2022-09-09T15:20:02;1.80;;;0.63;;
13568;SDS011;6856;51.460;7.158;2022-09-09T15:22:37;2.17;;;0.63;;
13568;SDS011;6856;51.460;7.158;2022-09-09T15:25:11;2.17;;;0.77;;
13568;SDS011;6856;51.460;7.158;2022-09-09T15:27:44;0.70;;;0.47;;
13568;SDS011;6856;51.460;7.158;2022-09-09T15:30:18;1.60;;;0.50;;
13568;SDS011;6856;51.460;7.158;2022-09-09T15:32:53;0.83;;;0.47;;
13568;SDS011;6856;51.460;7.158;2022-09-09T15:35:26;0.40;;;0.30;;
13568;SDS011;6856;51.460;7.158;2022-09-09T15:38:09;1.03;;;0.50;;
13568;SDS011;6856;51.460;7.158;2022-09-09T15:40:44;1.87;;;0.50;;
13568;SDS011;6856;51.460;7.158;2022-09-09T15:43:25;0.50;;;0.30;;
13568;SDS011;6856;51.460;7.158;2022-09-09T15:46:00;1.13;;;0.50;;
13568;SDS011;6856;51.460;7.158;2022-09-09T15:49:11;0.30;;;0.30;;
13568;SDS011;6856;51.460;7.158;2022-09-09T15:51:50;0.53;;;0.50;;
13568;SDS011;6856;51.460;7.158;2022-09-09T15:54:26;0.50;;;0.50;;
13568;SDS011;6856;51.460;7.158;2022-09-09T15:57:02;1.07;;;0.50;;
13568;SDS011;6856;51.460;7.158;2022-09-09T15:59:38;0.43;;;0.40;;
13568;SDS011;6856;51.460;7.158;2022-09-09T16:02:11;0.50;;;0.50;;
13568;SDS011;6856;51.460;7.158;2022-09-09T16:04:46;1.43;;;0.57;;
13568;SDS011;6856;51.460;7.158;2022-09-09T16:07:19;0.70;;;0.50;;
13568;SDS011;6856;51.460;7.158;2022-09-09T16:09:53;0.50;;;0.37;;
13568;SDS011;6856;51.460;7.158;2022-09-09T16:12:26;0.40;;;0.40;;
13568;SDS011;6856;51.460;7.158;2022-09-09T16:15:00;0.60;;;0.40;;
13568;SDS011;6856;51.460;7.158;2022-09-09T16:17:33;0.93;;;0.60;;
13568;SDS011;6856;51.460;7.158;2022-09-09T16:20:10;0.97;;;0.50;;
13568;SDS011;6856;51.460;7.158;2022-09-09T16:22:45;0.60;;;0.40;;
13568;SDS011;6856;51.460;7.158;2022-09-09T16:25:18;1.13;;;0.60;;
13568;SDS011;6856;51.460;7.158;2022-09-09T16:27:52;0.40;;;0.40;;
13568;SDS011;6856;51.460;7.158;2022-09-09T16:30:25;1.23;;;0.73;;
13568;SDS011;6856;51.460;7.158;2022-09-09T16:32:59;0.93;;;0.50;;
13568;SDS011;6856;51.460;7.158;2022-09-09T16:35:36;0.87;;;0.40;;
13568;SDS011;6856;51.460;7.158;2022-09-09T16:38:11;0.83;;;0.40;;